Time;durP1;ratioP1;P1;durP2;ratioP2;P2;SDS_P1;SDS_P2;PMS_P1;PMS_P2;Temp;Humidity;BMP_temperature;BMP_pressure;BME280_temperature;BME280_humidity;BME280_pressure;Samples;Min_cycle;Max_cycle;Signal;HPM_P1;HPM_P2
2022/04/30 00:01:26;;;;;;;3.45;3.15;;;;;;;20.25;38.68;97494.31;10304555;28;20046;-50
2022/04/30 00:06:46;;;;;;;3.60;3.30;;;;;;;20.24;38.61;97484.59;10322852;28;20054;-49
2022/04/30 00:12:06;;;;;;;3.45;3.15;;;;;;;20.23;38.57;97491.09;10319949;28;20054;-50
2022/04/30 00:17:25;;;;;;;3.55;3.25;;;;;;;20.22;38.50;97484.13;10295168;28;20062;-52
2022/04/30 00:22:45;;;;;;;3.50;3.20;;;;;;;20.21;38.51;97468.97;10306388;28;20140;-50
2022/04/30 00:28:05;;;;;;;3.22;2.92;;;;;;;20.19;38.50;97477.44;10315768;28;20050;-49
2022/04/30 00:33:24;;;;;;;3.28;3.00;;;;;;;20.18;38.41;97467.69;10307895;28;20054;-52
2022/04/30 00:38:44;;;;;;;3.08;2.78;;;;;;;20.15;38.50;97466.44;10310213;28;20051;-52
2022/04/30 00:44:03;;;;;;;3.20;2.90;;;;;;;20.17;38.56;97459.88;10325682;28;20130;-52
2022/04/30 00:49:23;;;;;;;3.47;3.17;;;;;;;20.14;38.46;97461.31;10328888;28;20058;-52
2022/04/30 00:54:48;;;;;;;4.82;3.30;;;;;;;20.14;38.35;97458.63;10336876;28;20053;-49
2022/04/30 01:00:09;;;;;;;3.25;2.95;;;;;;;20.11;38.52;97445.69;10325797;28;20046;-51
2022/04/30 01:05:43;;;;;;;3.33;3.03;;;;;;;20.11;38.37;97443.00;10303353;28;20057;-50
2022/04/30 01:11:06;;;;;;;3.30;3.00;;;;;;;20.10;38.44;97442.22;10318957;28;20039;-51
2022/04/30 01:16:26;;;;;;;3.75;3.28;;;;;;;20.09;38.36;97447.94;10303638;28;20062;-51
2022/04/30 01:21:48;;;;;;;3.78;2.95;;;;;;;20.08;38.34;97454.47;10314413;28;20049;-50
2022/04/30 01:27:07;;;;;;;2.92;2.72;;;;;;;20.07;38.28;97445.56;10341330;28;20046;-51
2022/04/30 01:38:16;;;;;;;3.15;2.85;;;;;;;20.04;38.34;97434.56;10304314;28;20058;-51
2022/04/30 01:43:35;;;;;;;3.40;2.80;;;;;;;20.04;38.29;97437.25;10323250;28;20448;-50
2022/04/30 01:48:55;;;;;;;3.25;2.95;;;;;;;20.03;38.33;97435.66;10320328;28;20051;-49
2022/04/30 01:54:15;;;;;;;3.47;3.17;;;;;;;20.00;38.34;97431.66;10328447;28;20046;-49
2022/04/30 01:59:35;;;;;;;3.00;2.70;;;;;;;20.00;38.47;97439.78;10309842;28;20042;-50
2022/04/30 02:04:56;;;;;;;3.05;2.75;;;;;;;19.99;38.29;97426.56;10341605;28;20034;-49
2022/04/30 02:10:18;;;;;;;3.20;2.90;;;;;;;19.98;38.29;97427.69;10293187;28;20075;-52
2022/04/30 02:15:40;;;;;;;3.42;3.00;;;;;;;19.98;38.37;97425.00;10321573;28;20061;-49
2022/04/30 02:20:59;;;;;;;3.38;3.03;;;;;;;19.97;38.26;97423.38;10324494;28;20052;-49
2022/04/30 02:26:19;;;;;;;2.97;2.78;;;;;;;19.95;38.35;97418.28;10327619;28;20521;-52
2022/04/30 02:31:38;;;;;;;2.88;2.67;;;;;;;19.94;38.36;97419.41;10327380;28;20422;-51
2022/04/30 02:36:58;;;;;;;3.03;2.70;;;;;;;19.92;38.42;97406.19;10312411;28;20502;-50
2022/04/30 02:42:17;;;;;;;3.30;3.00;;;;;;;19.91;38.32;97407.28;10326392;28;20053;-51
2022/04/30 02:47:38;;;;;;;3.15;2.85;;;;;;;19.90;38.21;97405.69;10328543;28;20113;-52
2022/04/30 02:52:58;;;;;;;3.00;2.70;;;;;;;19.89;38.23;97401.38;10303387;28;20215;-51
2022/04/30 03:03:56;;;;;;;3.97;3.17;;;;;;;19.87;38.21;97390.09;10314374;28;20043;-49
2022/04/30 03:09:16;;;;;;;3.33;3.03;;;;;;;19.86;38.22;97391.22;10312931;28;20101;-49
2022/04/30 03:14:35;;;;;;;2.88;2.67;;;;;;;19.86;38.28;97387.72;10317889;28;20124;-50
2022/04/30 03:25:33;;;;;;;3.33;3.03;;;;;;;19.83;38.16;97382.91;10317055;28;20066;-50
2022/04/30 03:30:53;;;;;;;2.92;2.72;;;;;;;19.82;38.23;97381.34;10307399;28;20050;-51
2022/04/30 03:36:15;;;;;;;2.80;2.60;;;;;;;19.81;38.00;97377.81;10325107;28;20453;-50
2022/04/30 03:41:35;;;;;;;3.03;2.80;;;;;;;19.79;38.30;97385.44;10316915;28;20055;-49
2022/04/30 03:46:54;;;;;;;3.22;2.92;;;;;;;19.79;38.13;97387.34;10336805;28;20042;-52
2022/04/30 03:52:14;;;;;;;3.67;2.95;;;;;;;19.78;38.28;97383.88;10318307;28;20055;-52
2022/04/30 03:57:33;;;;;;;2.95;2.67;;;;;;;19.77;38.20;97374.13;10302565;28;20061;-49
2022/04/30 04:02:53;;;;;;;3.20;2.90;;;;;;;19.75;38.17;97379.06;10322581;28;20116;-49
2022/04/30 04:08:14;;;;;;;3.13;2.83;;;;;;;19.75;38.27;97373.66;10327591;28;20406;-51
2022/04/30 04:19:12;;;;;;;3.43;3.13;;;;;;;19.72;38.12;97374.28;10323435;28;20055;-51
2022/04/30 04:30:10;;;;;;;3.88;3.15;;;;;;;19.69;38.13;97364.84;10327047;28;20061;-49
2022/04/30 04:35:30;;;;;;;3.83;3.45;;;;;;;19.69;38.13;97369.47;10329645;28;20050;-50
2022/04/30 04:40:49;;;;;;;3.40;3.10;;;;;;;19.68;38.30;97373.25;10320821;28;20042;-51
2022/04/30 04:46:09;;;;;;;4.70;2.83;;;;;;;19.68;38.45;97373.25;10327563;28;20070;-51
2022/04/30 04:51:28;;;;;;;3.10;2.90;;;;;;;19.68;38.43;97378.66;10341573;28;20050;-52
2022/04/30 04:56:48;;;;;;;3.40;3.10;;;;;;;19.67;38.58;97371.69;10345757;28;20042;-52
2022/04/30 05:02:07;;;;;;;3.42;3.13;;;;;;;19.67;38.75;97372.47;10334429;28;20453;-51
2022/04/30 05:07:27;;;;;;;3.30;3.00;;;;;;;19.69;38.65;97369.47;10307378;28;20054;-50
2022/04/30 05:12:46;;;;;;;3.50;3.20;;;;;;;19.71;38.68;97372.66;10322477;28;20058;-49
2022/04/30 05:18:07;;;;;;;4.40;3.25;;;;;;;19.72;38.89;97374.28;10328915;28;20113;-52
2022/04/30 05:23:27;;;;;;;3.40;3.10;;;;;;;19.73;38.93;97370.47;10308545;28;20051;-52
2022/04/30 05:28:46;;;;;;;3.60;3.30;;;;;;;19.75;38.99;97373.66;10318916;28;20589;-49
2022/04/30 05:34:06;;;;;;;3.70;3.22;;;;;;;19.77;39.00;97382.25;10330268;28;20050;-52
2022/04/30 05:39:26;;;;;;;4.40;3.35;;;;;;;19.77;38.77;97381.47;10333057;28;20497;-52
2022/04/30 05:44:45;;;;;;;3.45;3.15;;;;;;;19.78;38.80;97383.88;10312634;28;20050;-50
2022/04/30 05:50:06;;;;;;;3.42;3.13;;;;;;;19.80;38.76;97391.63;10340938;28;20046;-50
2022/04/30 05:55:26;;;;;;;3.55;3.25;;;;;;;19.82;38.56;97397.56;10350001;28;20046;-49
2022/04/30 06:00:45;;;;;;;3.30;3.00;;;;;;;19.84;38.65;97396.13;10333390;28;20457;-49
2022/04/30 06:06:05;;;;;;;3.58;3.28;;;;;;;19.86;38.41;97396.63;10326653;28;20049;-51
2022/04/30 06:11:25;;;;;;;3.42;3.13;;;;;;;19.88;38.50;97390.91;10329291;28;20054;-49
2022/04/30 06:16:44;;;;;;;3.22;2.92;;;;;;;19.91;38.33;97388.34;10308454;28;20054;-49
2022/04/30 06:22:03;;;;;;;3.50;3.20;;;;;;;19.95;38.27;97391.22;10316678;28;20055;-52
2022/04/30 06:27:23;;;;;;;3.70;3.40;;;;;;;19.98;38.24;97392.53;10324942;28;20055;-50
2022/04/30 06:32:42;;;;;;;3.30;3.00;;;;;;;20.02;38.15;97398.91;10342377;28;20548;-52
2022/04/30 06:38:01;;;;;;;3.33;3.03;;;;;;;20.05;38.15;97393.69;10312401;28;20054;-51
2022/04/30 06:43:21;;;;;;;3.50;3.20;;;;;;;20.09;38.08;97396.53;10292808;28;20490;-51
2022/04/30 06:48:41;;;;;;;3.50;3.20;;;;;;;20.12;38.08;97394.00;10318268;28;20058;-51
2022/04/30 06:59:42;;;;;;;2.87;2.67;;;;;;;20.20;37.85;97400.56;10325118;28;20069;-52
2022/04/30 07:05:02;;;;;;;3.80;3.28;;;;;;;20.23;37.82;97408.06;10329193;28;20425;-51
2022/04/30 07:10:22;;;;;;;3.33;2.95;;;;;;;20.26;37.81;97412.81;10322443;28;20094;-49
2022/04/30 07:15:41;;;;;;;2.90;2.70;;;;;;;20.29;38.09;97406.00;10323617;28;20066;-49
2022/04/30 07:21:01;;;;;;;3.35;3.05;;;;;;;20.31;38.34;97404.56;10317259;28;20058;-51
2022/04/30 07:26:20;;;;;;;2.97;2.67;;;;;;;20.34;38.40;97408.56;10323962;28;20046;-52
2022/04/30 07:31:40;;;;;;;3.45;3.15;;;;;;;20.35;38.26;97402.03;10324652;28;20065;-51
2022/04/30 07:37:00;;;;;;;3.15;2.90;;;;;;;20.38;38.30;97398.69;10313699;28;20050;-51
2022/04/30 07:42:19;;;;;;;3.50;3.20;;;;;;;20.39;38.41;97392.19;10328546;28;20113;-51
2022/04/30 07:47:38;;;;;;;3.45;3.15;;;;;;;20.42;38.28;97401.56;10333855;28;20050;-52
2022/04/30 07:52:57;;;;;;;3.50;3.20;;;;;;;20.41;38.06;97394.56;10334053;28;20046;-52
2022/04/30 07:58:17;;;;;;;3.80;3.50;;;;;;;20.41;37.69;97398.06;10328604;28;20161;-51
2022/04/30 08:03:40;;;;;;;3.55;3.17;;;;;;;20.41;37.33;97381.84;10335562;28;20038;-50
2022/04/30 08:08:59;;;;;;;4.10;3.53;;;;;;;20.42;37.19;97388.81;10324098;28;20046;-50
2022/04/30 08:14:19;;;;;;;3.78;3.47;;;;;;;20.41;37.05;97379.13;10326918;28;20505;-51
2022/04/30 08:19:40;;;;;;;5.93;4.13;;;;;;;20.42;37.34;97386.13;10337128;28;20042;-52
2022/04/30 08:25:03;;;;;;;4.03;3.72;;;;;;;20.47;37.85;97382.50;10330605;28;20050;-48
2022/04/30 08:30:23;;;;;;;7.53;3.30;;;;;;;20.47;38.21;97383.28;10325996;28;20069;-48
2022/04/30 08:35:42;;;;;;;4.70;3.60;;;;;;;20.47;38.27;97380.56;10313430;28;20122;-48
2022/04/30 08:41:02;;;;;;;5.07;3.78;;;;;;;20.48;38.23;97378.66;10336830;28;20054;-49
2022/04/30 08:46:21;;;;;;;4.10;3.70;;;;;;;20.50;37.86;97376.41;10362470;28;20066;-52
2022/04/30 08:51:41;;;;;;;9.82;3.88;;;;;;;20.51;38.00;97375.31;10344179;28;20504;-48
2022/04/30 08:57:00;;;;;;;10.18;3.78;;;;;;;20.51;38.11;97369.91;10341571;28;20049;-47
2022/04/30 09:02:20;;;;;;;5.88;3.40;;;;;;;20.51;38.07;97365.28;10331358;28;20053;-48
2022/04/30 09:07:39;;;;;;;3.70;3.17;;;;;;;20.53;38.05;97370.38;10343338;28;20038;-48
2022/04/30 09:13:05;;;;;;;4.65;3.35;;;;;;;20.53;37.92;97373.09;10330312;28;20054;-47
2022/04/30 09:18:25;;;;;;;6.38;3.25;;;;;;;20.54;37.54;97371.97;10325140;28;20050;-47
2022/04/30 09:23:45;;;;;;;4.53;3.15;;;;;;;20.53;37.45;97364.97;10345553;28;20042;-47
2022/04/30 09:29:19;;;;;;;17.98;6.10;;;;;;;20.53;37.77;97362.28;10329318;28;20058;-47
2022/04/30 09:40:19;;;;;;;8.38;4.00;;;;;;;20.50;36.75;97352.06;10329232;28;20054;-52
2022/04/30 09:45:38;;;;;;;8.10;3.63;;;;;;;20.50;36.40;97343.94;10331260;28;20577;-52
2022/04/30 09:56:38;;;;;;;7.32;3.45;;;;;;;20.48;35.07;97338.06;10325409;28;20038;-52
2022/04/30 10:01:57;;;;;;;5.85;3.45;;;;;;;20.48;34.93;97327.22;10327879;28;20062;-52
2022/04/30 10:07:19;;;;;;;6.45;3.70;;;;;;;20.46;33.34;97327.53;10331749;28;20547;-51
2022/04/30 10:13:03;;;;;;;5.25;3.50;;;;;;;20.41;31.79;97329.63;10329619;28;20054;-52
2022/04/30 10:18:35;;;;;;;4.97;3.45;;;;;;;20.36;31.43;97319.72;10337937;28;20049;-51
2022/04/30 10:24:05;;;;;;;3.78;3.40;;;;;;;20.30;31.42;97313.69;10342195;28;20069;-52
2022/04/30 10:29:25;;;;;;;7.13;3.22;;;;;;;20.29;31.42;97322.91;10326242;28;20062;-52
2022/04/30 10:34:51;;;;;;;5.82;3.50;;;;;;;20.29;32.17;97314.00;10329324;28;20065;-52
2022/04/30 10:40:10;;;;;;;4.85;4.00;;;;;;;20.29;32.40;97309.41;10341101;28;20043;-52
2022/04/30 10:45:30;;;;;;;4.57;4.05;;;;;;;20.29;32.51;97306.69;10351268;28;20056;-51
2022/04/30 10:51:07;;;;;;;4.47;4.00;;;;;;;20.28;32.58;97305.06;10374508;28;20039;-51
2022/04/30 10:56:27;;;;;;;6.90;3.90;;;;;;;20.26;32.83;97301.91;10328989;28;20046;-50
2022/04/30 11:01:48;;;;;;;6.03;4.15;;;;;;;20.25;32.47;97294.91;10328687;28;20047;-52
2022/04/30 11:07:08;;;;;;;7.30;4.05;;;;;;;20.22;32.62;97290.13;10336690;28;20050;-51
2022/04/30 11:12:32;;;;;;;4.90;3.83;;;;;;;20.22;32.73;97289.31;10336099;28;20055;-52
2022/04/30 11:17:52;;;;;;;4.70;3.15;;;;;;;20.22;33.86;97283.91;10329222;28;20050;-50
2022/04/30 11:23:20;;;;;;;7.18;3.33;;;;;;;20.22;34.90;97282.00;10359402;28;20042;-52
2022/04/30 11:28:40;;;;;;;3.78;3.47;;;;;;;20.24;35.21;97279.00;10322415;28;20061;-51
2022/04/30 11:34:09;;;;;;;5.90;3.40;;;;;;;20.23;33.90;97275.50;10318479;28;20046;-49
2022/04/30 11:39:29;;;;;;;8.18;4.28;;;;;;;20.25;35.24;97273.25;10325882;28;20117;-51
2022/04/30 11:44:52;;;;;;;10.90;5.65;;;;;;;20.26;36.63;97271.34;10338878;28;20050;-50
2022/04/30 11:50:12;;;;;;;11.95;5.22;;;;;;;20.28;37.64;97263.72;10319614;28;20054;-49
2022/04/30 11:55:31;;;;;;;9.57;4.88;;;;;;;20.30;38.02;97262.25;10296350;28;20050;-53
2022/04/30 12:00:54;;;;;;;12.23;4.85;;;;;;;20.33;38.47;97260.84;10323246;28;20397;-58
2022/04/30 12:06:15;;;;;;;8.18;4.95;;;;;;;20.35;38.64;97256.72;10314412;28;20054;-58
2022/04/30 12:11:41;;;;;;;8.15;4.60;;;;;;;20.35;38.54;97254.00;10326574;28;20054;-59
2022/04/30 12:17:00;;;;;;;8.00;4.50;;;;;;;20.35;38.39;97251.31;10328110;28;20030;-60
2022/04/30 12:28:03;;;;;;;6.43;3.72;;;;;;;20.37;38.01;97250.19;10315067;28;20050;-62
2022/04/30 12:33:23;;;;;;;5.20;3.78;;;;;;;20.36;37.71;97249.38;10327658;28;20062;-62
2022/04/30 12:38:56;;;;;;;7.22;3.78;;;;;;;20.36;37.37;97243.97;10320702;28;20046;-59
2022/04/30 12:44:16;;;;;;;5.68;3.50;;;;;;;20.37;36.70;97244.78;10340856;28;20050;-63
2022/04/30 12:49:35;;;;;;;5.25;3.05;;;;;;;20.34;36.42;97230.75;10326540;28;20417;-63
2022/04/30 12:54:56;;;;;;;6.25;3.13;;;;;;;20.35;36.31;97218.84;10328653;28;20469;-62
2022/04/30 13:00:17;;;;;;;5.63;2.70;;;;;;;20.35;36.34;97228.88;10328643;28;20057;-62
2022/04/30 13:05:37;;;;;;;4.22;3.00;;;;;;;20.34;36.11;97209.09;10330844;28;20662;-63
2022/04/30 13:16:35;;;;;;;3.88;2.70;;;;;;;20.34;35.51;97217.22;10324536;28;20062;-63
2022/04/30 13:21:54;;;;;;;6.07;2.45;;;;;;;20.33;35.36;97214.84;10327943;28;20064;-63
2022/04/30 13:27:13;;;;;;;2.58;2.33;;;;;;;20.33;35.34;97210.22;10323985;28;20054;-63
2022/04/30 13:32:33;;;;;;;4.57;2.95;;;;;;;20.33;35.14;97212.94;10342398;28;20425;-63
2022/04/30 13:37:54;;;;;;;2.67;2.35;;;;;;;20.33;35.02;97202.13;10329378;28;20104;-63
2022/04/30 13:43:15;;;;;;;3.42;2.33;;;;;;;20.33;34.87;97185.88;10331001;28;20532;-62
2022/04/30 13:48:34;;;;;;;2.40;2.20;;;;;;;20.34;34.54;97189.38;10330799;28;20113;-51
2022/04/30 13:53:53;;;;;;;4.20;2.50;;;;;;;20.34;34.21;97187.47;10328269;28;20049;-52
2022/04/30 13:59:13;;;;;;;5.53;2.53;;;;;;;20.33;33.34;97180.47;10324719;28;20472;-50
2022/04/30 14:04:34;;;;;;;4.60;2.33;;;;;;;20.31;32.47;97171.88;10320563;28;20054;-53
2022/04/30 14:09:53;;;;;;;3.35;2.75;;;;;;;20.32;32.08;97170.75;10323083;28;20494;-53
2022/04/30 14:15:13;;;;;;;3.28;2.20;;;;;;;20.30;32.14;97166.78;10324804;28;20473;-53
2022/04/30 14:20:33;;;;;;;3.05;2.67;;;;;;;20.28;31.81;97169.81;10325575;28;20101;-51
2022/04/30 14:25:53;;;;;;;4.15;2.60;;;;;;;20.27;31.42;97176.34;10326184;28;20058;-52
2022/04/30 14:31:14;;;;;;;4.28;2.55;;;;;;;20.26;31.39;97158.50;10337117;28;20065;-50
2022/04/30 14:36:34;;;;;;;3.72;2.13;;;;;;;20.24;31.37;97166.16;10330495;28;20061;-52
2022/04/30 14:41:53;;;;;;;5.07;2.45;;;;;;;20.24;31.14;97168.84;10327938;28;20053;-52
2022/04/30 14:47:13;;;;;;;3.22;2.47;;;;;;;20.24;30.98;97168.06;10326352;28;20058;-51
2022/04/30 14:52:32;;;;;;;3.28;2.22;;;;;;;20.22;30.55;97165.66;10342631;28;20050;-53
2022/04/30 14:57:52;;;;;;;4.43;2.40;;;;;;;20.22;30.52;97156.78;10318712;28;20536;-52
2022/04/30 15:03:13;;;;;;;3.15;2.30;;;;;;;20.19;30.71;97160.91;10324327;28;20054;-53
2022/04/30 15:08:33;;;;;;;3.03;2.30;;;;;;;20.19;30.54;97158.22;10315854;28;20050;-49
2022/04/30 15:13:53;;;;;;;5.15;2.53;;;;;;;20.18;30.74;97153.91;10329327;28;20046;-50
2022/04/30 15:19:13;;;;;;;3.83;2.38;;;;;;;20.17;31.18;97148.81;10324858;28;20116;-51
2022/04/30 15:24:33;;;;;;;3.50;2.55;;;;;;;20.15;30.69;97141.03;10321051;28;20510;-53
2022/04/30 15:29:52;;;;;;;2.92;2.17;;;;;;;20.15;30.40;97138.34;10328021;28;20050;-51
2022/04/30 15:35:12;;;;;;;3.92;2.55;;;;;;;20.15;30.52;97141.03;10318744;28;20061;-48
2022/04/30 15:40:32;;;;;;;3.35;2.33;;;;;;;20.14;31.29;97131.31;10335248;28;20049;-48
2022/04/30 15:45:51;;;;;;;3.67;2.10;;;;;;;20.14;31.89;97126.69;10326868;28;20054;-50
2022/04/30 15:51:23;;;;;;;4.82;2.40;;;;;;;20.15;31.95;97133.72;10337666;28;20115;-53
2022/04/30 15:56:44;;;;;;;3.05;2.45;;;;;;;20.16;31.20;97126.38;10334947;28;20034;-52
2022/04/30 16:02:05;;;;;;;3.47;2.30;;;;;;;20.13;30.72;97122.41;10327216;28;20077;-50
2022/04/30 16:07:24;;;;;;;3.47;2.50;;;;;;;20.12;31.92;97123.50;10329562;28;20054;-50
2022/04/30 16:12:45;;;;;;;2.70;2.40;;;;;;;20.11;32.31;97116.53;10331989;28;20062;-52
2022/04/30 16:18:06;;;;;;;3.28;2.60;;;;;;;20.12;32.42;97117.31;10331568;28;20058;-53
2022/04/30 16:23:26;;;;;;;3.47;2.63;;;;;;;20.12;32.46;97117.31;10325990;28;20050;-49
2022/04/30 16:28:46;;;;;;;3.25;2.60;;;;;;;20.10;32.45;97111.44;10330109;28;20124;-51
2022/04/30 16:34:06;;;;;;;3.00;2.22;;;;;;;20.09;32.68;97107.94;10326508;28;20101;-50
2022/04/30 16:39:26;;;;;;;4.35;2.30;;;;;;;20.10;32.73;97104.09;10330768;28;20054;-50
2022/04/30 16:44:45;;;;;;;2.60;2.03;;;;;;;20.08;32.58;97100.94;10332162;28;20086;-51
2022/04/30 16:50:06;;;;;;;3.63;2.25;;;;;;;20.08;32.80;97097.44;10343936;28;20556;-52
2022/04/30 17:01:03;;;;;;;4.63;3.53;;;;;;;20.05;32.61;97100.78;10328702;28;20043;-52
2022/04/30 17:06:24;;;;;;;4.57;2.78;;;;;;;20.05;32.88;97100.78;10336579;28;20043;-52
2022/04/30 17:11:43;;;;;;;5.07;2.97;;;;;;;20.04;33.36;97107.31;10295686;28;20065;-52
2022/04/30 17:17:03;;;;;;;3.63;3.00;;;;;;;20.04;33.74;97107.31;10314519;28;20054;-51
2022/04/30 17:22:22;;;;;;;42.42;22.75;;;;;;;20.04;35.51;97104.59;10338975;28;20038;-50
2022/04/30 17:27:44;;;;;;;32.97;21.52;;;;;;;20.04;33.19;97110.78;10330734;28;20057;-51
2022/04/30 17:38:42;;;;;;;41.72;23.90;;;;;;;20.14;36.81;97106.97;10322143;28;20544;-50
2022/04/30 17:44:03;;;;;;;18.65;13.70;;;;;;;19.94;31.30;97109.22;10325710;28;20402;-51
2022/04/30 17:49:23;;;;;;;13.57;9.68;;;;;;;19.71;30.11;97107.75;10342923;28;20097;-50
2022/04/30 17:54:42;;;;;;;26.60;17.25;;;;;;;19.52;29.43;97113.44;10324780;28;20809;-50
2022/04/30 18:00:07;;;;;;;25.48;17.25;;;;;;;19.36;29.20;97113.09;10324992;28;20136;-50
2022/04/30 18:05:31;;;;;;;;;;;;;;;19.39;30.69;97112.50;10325762;28;20050;-50
2022/04/30 18:10:51;;;;;;;20.85;15.95;;;;;;;19.53;32.47;97110.44;10331886;28;20456;-50
2022/04/30 18:16:11;;;;;;;19.90;15.57;;;;;;;19.63;33.23;97116.66;10325411;28;20069;-50
2022/04/30 18:21:31;;;;;;;20.67;15.57;;;;;;;19.70;33.80;97117.00;10329968;28;20038;-50
2022/04/30 18:26:51;;;;;;;21.13;15.30;;;;;;;19.75;34.54;97119.56;10343956;28;20057;-50
2022/04/30 18:32:10;;;;;;;20.75;14.98;;;;;;;19.78;35.14;97124.34;10339120;28;20055;-52
2022/04/30 18:37:30;;;;;;;18.33;13.18;;;;;;;19.78;33.62;97124.34;10344360;28;20046;-49
2022/04/30 18:42:50;;;;;;;16.10;11.82;;;;;;;19.77;34.99;97132.75;10332561;28;20051;-48
2022/04/30 18:48:10;;;;;;;15.90;12.57;;;;;;;19.77;35.40;97138.94;10353716;28;20046;-57
2022/04/30 18:53:29;;;;;;;15.07;11.13;;;;;;;19.78;35.61;97148.66;10328957;28;20046;-57
2022/04/30 19:04:27;;;;;;;13.03;10.87;;;;;;;19.77;35.92;97144.34;10326296;28;20042;-57
2022/04/30 19:09:47;;;;;;;12.82;10.68;;;;;;;19.76;35.89;97153.59;10339719;28;20042;-56
2022/04/30 19:15:07;;;;;;;12.20;10.07;;;;;;;19.76;35.91;97153.59;10328911;28;20058;-53
2022/04/30 19:20:28;;;;;;;13.02;10.07;;;;;;;19.78;35.70;97155.97;10342035;28;20049;-52
2022/04/30 19:25:48;;;;;;;12.75;9.18;;;;;;;19.77;35.91;97165.19;10330034;28;20077;-52
2022/04/30 19:31:08;;;;;;;11.80;9.02;;;;;;;19.77;35.92;97157.09;10313530;28;20132;-52
2022/04/30 19:36:27;;;;;;;10.50;8.73;;;;;;;19.77;36.03;97159.78;10324340;28;20061;-53
2022/04/30 19:41:47;;;;;;;11.55;8.50;;;;;;;19.76;36.18;97167.09;10301874;28;20050;-53
2022/04/30 19:47:06;;;;;;;13.07;9.18;;;;;;;19.75;36.29;97162.81;10365277;28;20054;-52
2022/04/30 19:52:25;;;;;;;12.98;9.52;;;;;;;19.74;36.37;97161.22;10383177;28;20100;-53
2022/04/30 19:57:45;;;;;;;10.30;8.35;;;;;;;19.75;36.45;97162.81;10312718;28;20057;-53
2022/04/30 20:03:05;;;;;;;12.63;8.68;;;;;;;19.74;36.35;97162.00;10341598;28;20047;-53
2022/04/30 20:08:25;;;;;;;11.85;9.00;;;;;;;19.72;36.54;97158.84;10342354;28;20050;-53
2022/04/30 20:19:22;;;;;;;13.07;8.73;;;;;;;19.72;36.58;97163.44;10309767;28;20449;-51
2022/04/30 20:24:43;;;;;;;9.15;8.02;;;;;;;19.71;36.63;97156.41;10327244;28;20298;-52
2022/04/30 20:30:03;;;;;;;10.38;7.60;;;;;;;19.72;36.65;97163.44;10330687;28;20097;-52
2022/04/30 20:41:01;;;;;;;10.65;7.65;;;;;;;19.68;36.72;97163.25;10296049;28;20053;-53
2022/04/30 20:46:21;;;;;;;10.75;7.50;;;;;;;19.69;36.90;97158.63;10299777;28;20058;-52
2022/04/30 20:51:41;;;;;;;11.85;8.45;;;;;;;19.70;36.82;97168.34;10327712;28;20580;-53
2022/04/30 20:57:02;;;;;;;10.43;7.95;;;;;;;19.70;37.28;97165.66;10325060;28;20058;-53
2022/04/30 21:02:22;;;;;;;9.55;7.95;;;;;;;19.70;37.23;97163.72;10321530;28;20430;-52
2022/04/30 21:07:41;;;;;;;10.32;7.78;;;;;;;19.72;37.50;97160.75;10328523;28;20058;-53
2022/04/30 21:13:01;;;;;;;8.35;7.45;;;;;;;19.71;37.44;97165.34;10336107;28;20057;-52
2022/04/30 21:18:20;;;;;;;10.38;7.95;;;;;;;19.71;37.49;97154.53;10323194;28;20050;-53
2022/04/30 21:23:40;;;;;;;12.73;8.20;;;;;;;19.71;37.52;97161.81;10324930;28;20486;-53
2022/04/30 21:29:00;;;;;;;12.50;8.10;;;;;;;19.70;37.35;97162.94;10324770;28;20050;-50
2022/04/30 21:34:19;;;;;;;14.88;8.30;;;;;;;19.69;37.51;97153.22;10324168;28;20042;-53
2022/04/30 21:39:38;;;;;;;13.30;8.10;;;;;;;19.67;37.40;97155.44;10325211;28;20181;-52
2022/04/30 21:44:58;;;;;;;12.43;8.23;;;;;;;19.67;37.58;97152.75;10342635;28;20057;-53
2022/04/30 21:50:18;;;;;;;10.95;7.80;;;;;;;19.65;37.34;97154.97;10323007;28;20390;-50
2022/04/30 22:01:22;;;;;;;13.02;8.10;;;;;;;19.64;37.31;97156.88;10318400;28;20616;-51
2022/04/30 22:06:42;;;;;;;12.27;7.93;;;;;;;19.63;37.33;97165.31;10317587;28;20046;-51
2022/04/30 22:12:04;;;;;;;11.13;7.65;;;;;;;19.61;37.30;97154.81;10312767;28;20051;-51
2022/04/30 22:17:26;;;;;;;10.55;7.47;;;;;;;19.62;37.25;97158.28;10323553;28;20074;-51
2022/04/30 22:22:45;;;;;;;9.80;7.38;;;;;;;19.61;37.25;97156.72;10304925;28;20054;-50
2022/04/30 22:28:05;;;;;;;10.38;7.43;;;;;;;19.59;37.16;97148.91;10323692;28;20057;-52
2022/04/30 22:33:26;;;;;;;10.25;7.18;;;;;;;19.61;37.25;97157.50;10325195;28;20042;-52
2022/04/30 22:38:45;;;;;;;12.60;7.22;;;;;;;19.63;37.25;97155.28;10319425;28;20678;-52
2022/04/30 22:44:05;;;;;;;12.60;7.50;;;;;;;19.66;37.13;97151.16;10327821;28;20573;-51
2022/04/30 22:49:24;;;;;;;11.13;7.53;;;;;;;19.67;37.05;97158.16;10296657;28;20061;-50
2022/04/30 22:54:44;;;;;;;8.07;6.78;;;;;;;19.66;37.01;97151.97;10312184;28;20050;-52
2022/04/30 23:00:05;;;;;;;9.27;7.07;;;;;;;19.66;37.18;97154.66;10327391;28;20038;-51
2022/04/30 23:05:27;;;;;;;10.80;6.78;;;;;;;19.63;37.43;97149.09;10306193;28;20422;-51
2022/04/30 23:10:46;;;;;;;9.43;6.70;;;;;;;19.60;37.79;97137.00;10323723;28;20047;-53
2022/04/30 23:16:06;;;;;;;8.85;6.90;;;;;;;19.58;37.85;97144.63;10319014;28;20046;-50
2022/04/30 23:21:25;;;;;;;9.90;6.80;;;;;;;19.56;37.76;97131.44;10312568;28;20050;-53
2022/04/30 23:26:44;;;;;;;8.05;6.55;;;;;;;19.55;37.93;97131.75;10323529;28;20488;-51
2022/04/30 23:32:05;;;;;;;9.35;6.57;;;;;;;19.53;37.89;97132.06;10322552;28;20129;-53
2022/04/30 23:37:25;;;;;;;10.18;7.38;;;;;;;19.52;37.84;97129.66;10304229;28;20047;-52
2022/04/30 23:42:44;;;;;;;8.55;5.95;;;;;;;19.51;37.97;97131.56;10317135;28;20425;-50
2022/04/30 23:48:04;;;;;;;9.45;6.88;;;;;;;19.50;37.91;97127.31;10316218;28;20069;-51
2022/04/30 23:53:24;;;;;;;9.50;6.68;;;;;;;19.50;37.85;97130.00;10295570;28;20618;-51
2022/04/30 23:58:43;;;;;;;7.65;6.47;;;;;;;19.49;37.92;97123.00;10330828;28;20043;-50
